createdAt,value
2019-04-14T00:00:41.122Z,33.33
2019-04-14T00:01:32.648Z,33.58
2019-04-14T00:02:29.278Z,34.10
2019-04-14T00:03:17.274Z,33.95
2019-04-14T00:04:05.226Z,34.23
2019-04-14T00:04:44.409Z,34.05
2019-04-14T00:05:18.933Z,34.03
2019-04-14T00:05:56.091Z,32.80
2019-04-14T00:06:30.621Z,33.23
2019-04-14T00:07:03.998Z,33.85
2019-04-14T00:07:37.028Z,33.83
2019-04-14T00:08:11.061Z,34.30
2019-04-14T00:08:44.419Z,33.65
2019-04-14T00:09:20.444Z,33.58
2019-04-14T00:09:54.214Z,34.03
2019-04-14T00:10:27.360Z,33.48
2019-04-14T00:11:01.733Z,33.35
2019-04-14T00:11:40.960Z,33.90
2019-04-14T00:12:14.420Z,33.88
2019-04-14T00:12:47.402Z,33.35
2019-04-14T00:13:21.685Z,33.88
2019-04-14T00:13:54.804Z,33.88
2019-04-14T00:14:29.773Z,33.98
2019-04-14T00:15:05.658Z,34.08
2019-04-14T00:15:43.507Z,34.38
2019-04-14T00:16:14.142Z,34.40
2019-04-14T00:16:47.430Z,34.90
2019-04-14T00:17:21.634Z,33.48
2019-04-14T00:17:54.695Z,33.38
2019-04-14T00:18:27.684Z,33.88
2019-04-14T00:19:02.014Z,34.05
2019-04-14T00:19:36.971Z,33.63
2019-04-14T00:20:10.236Z,33.55
2019-04-14T00:20:44.765Z,34.15
2019-04-14T00:21:17.852Z,33.58
2019-04-14T00:21:52.157Z,33.98
2019-04-14T00:22:28.054Z,34.45
2019-04-14T00:22:59.965Z,33.88
2019-04-14T00:23:32.998Z,34.08
2019-04-14T00:24:07.290Z,34.15
2019-04-14T00:24:42.455Z,34.73
2019-04-14T00:25:15.645Z,34.18
2019-04-14T00:25:48.656Z,33.98
2019-04-14T00:26:27.653Z,34.58
2019-04-14T00:27:01.946Z,34.40
2019-04-14T00:27:35.143Z,34.45
2019-04-14T00:28:09.412Z,33.95
2019-04-14T00:28:42.629Z,33.78
2019-04-14T00:29:15.656Z,33.94
2019-04-14T00:29:48.890Z,33.83
2019-04-14T00:30:23.025Z,34.13
2019-04-14T00:30:56.039Z,34.55
2019-04-14T00:31:29.146Z,34.18
2019-04-14T00:32:03.083Z,34.45
2019-04-14T00:32:44.498Z,34.03
2019-04-14T00:33:19.210Z,34.38
2019-04-14T00:33:54.279Z,33.95
2019-04-14T00:34:46.425Z,34.10
2019-04-14T00:35:39.113Z,33.00
2019-04-14T00:36:21.886Z,34.10
2019-04-14T00:37:27.349Z,34.43
2019-04-14T00:38:15.127Z,34.48
2019-04-14T00:38:50.265Z,34.80
2019-04-14T00:39:29.497Z,34.45
2019-04-14T00:40:12.807Z,33.98
2019-04-14T00:41:00.700Z,34.18
2019-04-14T00:41:48.890Z,34.70
2019-04-14T00:42:40.938Z,34.40
2019-04-14T00:43:28.730Z,34.50
2019-04-14T00:44:27.806Z,34.38
2019-04-14T00:45:15.538Z,33.60
2019-04-14T00:45:57.649Z,33.25
2019-04-14T00:46:38.851Z,33.80
2019-04-14T00:47:16.103Z,34.10
2019-04-14T00:48:01.178Z,34.18
2019-04-14T00:48:29.885Z,34.70
2019-04-14T00:49:03.171Z,34.35
2019-04-14T00:49:36.099Z,33.85
2019-04-14T00:50:10.143Z,33.50
2019-04-14T00:50:43.199Z,34.45
2019-04-14T00:51:17.649Z,34.33
2019-04-14T00:51:50.946Z,34.30
2019-04-14T00:52:25.356Z,34.15
2019-04-14T00:52:58.871Z,34.15
2019-04-14T00:53:31.982Z,34.65
2019-04-14T00:54:05.024Z,34.30
2019-04-14T00:54:39.269Z,34.27
2019-04-14T00:55:12.461Z,34.15
2019-04-14T00:55:46.375Z,34.43
2019-04-14T00:56:19.695Z,34.53
2019-04-14T00:56:52.495Z,34.13
2019-04-14T00:57:25.401Z,34.48
2019-04-14T00:57:59.480Z,34.00
2019-04-14T00:58:34.314Z,34.38
2019-04-14T00:59:07.352Z,34.78
2019-04-14T00:59:40.241Z,34.45
2019-04-14T01:00:16.089Z,34.55
2019-04-14T01:00:50.055Z,34.48
2019-04-14T01:01:24.326Z,35.20
2019-04-14T01:01:57.405Z,34.30
2019-04-14T01:02:30.350Z,34.60
2019-04-14T01:03:04.799Z,34.40
2019-04-14T01:03:37.781Z,34.10
2019-04-14T01:04:10.805Z,33.88
2019-04-14T01:04:44.716Z,34.53
2019-04-14T01:05:17.889Z,34.88
2019-04-14T01:05:50.930Z,33.95
2019-04-14T01:06:24.996Z,34.43
2019-04-14T01:06:58.286Z,34.10
2019-04-14T01:07:32.629Z,34.23
2019-04-14T01:08:05.816Z,35.13
2019-04-14T01:08:38.700Z,34.65
2019-04-14T01:09:13.428Z,33.70
2019-04-14T01:09:46.411Z,34.65
2019-04-14T01:10:19.564Z,34.73
2019-04-14T01:10:52.584Z,34.67
2019-04-14T01:11:25.355Z,34.80
2019-04-14T01:11:59.506Z,34.55
2019-04-14T01:12:32.577Z,34.40
2019-04-14T01:13:08.440Z,34.75
2019-04-14T01:13:40.472Z,34.92
2019-04-14T01:14:14.802Z,34.92
2019-04-14T01:14:47.831Z,34.60
2019-04-14T01:15:20.752Z,34.48
2019-04-14T01:16:00.516Z,34.33
2019-04-14T01:16:29.718Z,34.48
2019-04-14T01:17:02.888Z,34.27
2019-04-14T01:17:35.810Z,35.00
2019-04-14T01:18:12.457Z,34.40
2019-04-14T01:18:45.687Z,34.23
2019-04-14T01:19:19.908Z,34.48
2019-04-14T01:19:52.822Z,33.92
2019-04-14T01:20:25.959Z,34.38
2019-04-14T01:20:58.747Z,34.33
2019-04-14T01:21:32.713Z,34.50
2019-04-14T01:22:05.887Z,34.83
2019-04-14T01:22:40.113Z,33.90
2019-04-14T01:23:13.223Z,34.55
2019-04-14T01:23:48.045Z,34.05
2019-04-14T01:24:20.923Z,34.67
2019-04-14T01:24:53.927Z,34.13
2019-04-14T01:25:28.110Z,34.50
2019-04-14T01:26:01.161Z,34.43
2019-04-14T01:26:34.091Z,34.33
2019-04-14T01:27:08.030Z,34.58
2019-04-14T01:27:41.211Z,34.18
2019-04-14T01:28:14.217Z,34.23
2019-04-14T01:28:48.316Z,34.75
2019-04-14T01:29:21.300Z,34.40
2019-04-14T01:29:54.189Z,34.15
2019-04-14T01:30:28.329Z,33.98
2019-04-14T01:31:01.520Z,33.73
2019-04-14T01:31:34.423Z,33.70
2019-04-14T01:32:08.705Z,34.50
2019-04-14T01:32:41.871Z,34.65
2019-04-14T01:33:14.698Z,33.63
2019-04-14T01:33:47.619Z,33.78
2019-04-14T01:34:21.625Z,33.63
2019-04-14T01:34:55.953Z,34.03
2019-04-14T01:35:29.803Z,33.42
2019-04-14T01:36:03.923Z,33.08
2019-04-14T01:36:36.920Z,34.03
2019-04-14T01:37:09.976Z,33.45
2019-04-14T01:37:44.027Z,33.90
2019-04-14T01:38:19.034Z,33.75
2019-04-14T01:38:53.497Z,32.98
2019-04-14T01:39:26.804Z,33.75
2019-04-14T01:40:00.914Z,33.83
2019-04-14T01:40:34.185Z,33.15
2019-04-14T01:41:08.451Z,32.67
2019-04-14T01:41:41.639Z,33.20
2019-04-14T01:42:15.864Z,32.80
2019-04-14T01:42:48.914Z,32.98
2019-04-14T01:43:21.982Z,33.10
2019-04-14T01:43:56.123Z,32.98
2019-04-14T01:44:29.049Z,33.13
2019-04-14T01:45:03.519Z,32.95
2019-04-14T01:45:36.743Z,33.30
2019-04-14T01:46:16.577Z,32.78
2019-04-14T01:46:45.589Z,32.33
2019-04-14T01:47:18.644Z,32.85
2019-04-14T01:47:51.595Z,32.90
2019-04-14T01:48:25.730Z,32.80
2019-04-14T01:49:00.706Z,32.80
2019-04-14T01:49:35.427Z,33.20
2019-04-14T01:50:08.684Z,32.23
2019-04-14T01:51:00.564Z,32.90
2019-04-14T01:51:57.108Z,32.63
2019-04-14T01:52:50.175Z,32.75
2019-04-14T01:53:40.146Z,32.13
2019-04-14T01:54:36.430Z,32.53
2019-04-14T01:55:28.790Z,32.40
2019-04-14T01:56:16.541Z,32.90
2019-04-14T01:56:58.771Z,32.65
2019-04-14T01:57:48.316Z,31.97
2019-04-14T01:58:27.174Z,31.50
2019-04-14T01:59:02.208Z,32.25
2019-04-14T01:59:35.297Z,32.53
2019-04-14T02:00:40.993Z,31.68
2019-04-14T02:01:19.513Z,31.93
2019-04-14T02:01:54.297Z,31.77
2019-04-14T02:02:27.737Z,31.40
2019-04-14T02:03:01.868Z,32.93
2019-04-14T02:03:34.859Z,32.40
2019-04-14T02:04:07.953Z,31.85
2019-04-14T02:04:42.063Z,32.63
2019-04-14T02:05:15.057Z,31.65
2019-04-14T02:05:48.153Z,32.15
2019-04-14T02:06:22.334Z,32.10
2019-04-14T02:06:57.371Z,31.73
2019-04-14T02:07:30.447Z,32.38
2019-04-14T02:08:04.458Z,32.23
2019-04-14T02:08:37.742Z,32.25
2019-04-14T02:09:12.049Z,30.95
2019-04-14T02:09:46.740Z,31.95
2019-04-14T02:10:19.928Z,31.27
2019-04-14T02:10:52.912Z,31.00
2019-04-14T02:11:26.977Z,32.00
2019-04-14T02:12:00.152Z,31.33
2019-04-14T02:12:33.084Z,32.33
2019-04-14T02:13:07.156Z,32.00
2019-04-14T02:13:40.499Z,32.03
2019-04-14T02:14:14.677Z,31.95
2019-04-14T02:14:47.802Z,31.52
2019-04-14T02:15:20.699Z,31.68
2019-04-14T02:15:54.746Z,32.03
2019-04-14T02:16:34.824Z,31.73
2019-04-14T02:17:04.485Z,31.65
2019-04-14T02:17:39.144Z,32.60
2019-04-14T02:18:12.270Z,32.08
2019-04-14T02:18:45.387Z,31.95
2019-04-14T02:19:19.789Z,31.17
2019-04-14T02:19:52.853Z,31.95
2019-04-14T02:20:27.144Z,31.73
2019-04-14T02:21:00.354Z,32.08
2019-04-14T02:21:34.447Z,31.30
2019-04-14T02:22:07.611Z,31.50
2019-04-14T02:22:41.899Z,31.97
2019-04-14T02:23:14.909Z,31.48
2019-04-14T02:23:47.742Z,31.05
2019-04-14T02:24:21.991Z,31.10
2019-04-14T02:24:55.147Z,31.62
2019-04-14T02:25:29.485Z,31.27
2019-04-14T02:26:03.136Z,31.68
2019-04-14T02:26:37.318Z,32.28
2019-04-14T02:27:10.366Z,31.90
2019-04-14T02:27:43.394Z,31.45
2019-04-14T02:28:17.643Z,30.92
2019-04-14T02:28:52.876Z,31.85
2019-04-14T02:29:25.822Z,31.57
2019-04-14T02:30:00.184Z,31.00
2019-04-14T02:30:41.704Z,31.85
2019-04-14T02:31:24.640Z,31.75
2019-04-14T02:32:09.564Z,31.70
2019-04-14T02:33:26.102Z,31.80
2019-04-14T02:33:50.568Z,30.75
2019-04-14T02:34:34.333Z,31.55
2019-04-14T02:35:02.160Z,31.65
2019-04-14T02:36:21.910Z,32.00
2019-04-14T02:37:05.119Z,30.90
2019-04-14T02:38:05.637Z,31.68
2019-04-14T02:39:15.564Z,31.27
2019-04-14T02:39:50.877Z,31.55
2019-04-14T02:40:34.784Z,31.17
2019-04-14T02:41:18.890Z,31.30
2019-04-14T02:41:40.895Z,31.93
2019-04-14T02:42:28.353Z,31.45
2019-04-14T02:42:42.402Z,31.17
2019-04-14T02:43:23.681Z,31.60
2019-04-14T02:44:34.297Z,31.73
2019-04-14T02:44:59.861Z,31.20
2019-04-14T02:45:44.910Z,30.68
2019-04-14T02:49:04.679Z,31.07
2019-04-14T02:49:44.248Z,31.93
2019-04-14T02:50:14.212Z,31.07
2019-04-14T02:50:49.578Z,31.25
2019-04-14T02:51:27.564Z,30.92
2019-04-14T02:51:58.318Z,30.72
2019-04-14T02:52:35.319Z,31.27
2019-04-14T02:53:18.044Z,31.77
2019-04-14T02:53:49.794Z,31.15
2019-04-14T02:54:32.931Z,31.17
2019-04-14T02:54:59.964Z,30.88
2019-04-14T02:55:31.921Z,31.15
2019-04-14T02:56:43.671Z,31.20
2019-04-14T02:57:30.605Z,31.42
2019-04-14T02:57:52.103Z,30.97
2019-04-14T02:58:45.935Z,30.57
2019-04-14T02:59:05.632Z,31.12
2019-04-14T02:59:45.067Z,32.03
2019-04-14T03:00:16.754Z,31.07
2019-04-14T03:00:47.909Z,31.00
2019-04-14T03:03:10.879Z,31.15
2019-04-14T03:03:43.716Z,30.50
2019-04-14T03:04:19.699Z,31.30
2019-04-14T03:05:05.986Z,31.73
2019-04-14T03:05:26.941Z,30.65
2019-04-14T03:06:33.534Z,30.50
2019-04-14T03:07:16.525Z,31.27
2019-04-14T03:08:25.752Z,31.80
2019-04-14T03:09:16.345Z,31.15
2019-04-14T03:10:16.326Z,31.07
2019-04-14T03:11:03.991Z,32.10
2019-04-14T03:11:17.467Z,31.80
2019-04-14T03:11:51.333Z,31.35
2019-04-14T03:13:09.083Z,31.45
2019-04-14T03:13:45.022Z,31.37
2019-04-14T03:14:15.553Z,32.30
2019-04-14T03:14:53.630Z,31.68
2019-04-14T03:15:27.914Z,30.68
2019-04-14T03:16:02.264Z,31.52
2019-04-14T03:17:11.155Z,30.92
2019-04-14T03:17:58.492Z,31.23
2019-04-14T03:18:53.800Z,31.73
2019-04-14T03:20:09.428Z,31.25
2019-04-14T03:22:07.246Z,31.30
2019-04-14T03:23:26.877Z,31.57
2019-04-14T03:24:07.211Z,30.97
2019-04-14T03:24:42.082Z,31.33
2019-04-14T03:25:31.821Z,31.75
2019-04-14T03:26:49.381Z,31.52
2019-04-14T03:27:48.225Z,31.02
2019-04-14T03:28:40.261Z,31.55
2019-04-14T03:29:12.836Z,30.43
2019-04-14T03:29:43.260Z,31.00
2019-04-14T03:30:58.877Z,31.07
2019-04-14T03:32:55.933Z,31.45
2019-04-14T03:33:32.192Z,31.10
2019-04-14T03:34:30.312Z,31.60
2019-04-14T03:36:16.866Z,31.45
2019-04-14T03:37:33.097Z,31.80
2019-04-14T03:38:18.556Z,31.73
2019-04-14T03:39:33.419Z,31.57
2019-04-14T03:39:57.286Z,31.50
2019-04-14T03:41:17.211Z,31.55
2019-04-14T03:41:48.880Z,31.20
2019-04-14T03:42:29.387Z,31.00
2019-04-14T03:43:03.148Z,31.82
2019-04-14T03:43:30.292Z,32.42
2019-04-14T03:44:01.262Z,31.90
2019-04-14T03:44:41.988Z,31.75
2019-04-14T03:45:32.451Z,31.27
2019-04-14T03:46:11.827Z,31.73
2019-04-14T03:46:45.191Z,31.48
2019-04-14T03:47:30.701Z,32.13
2019-04-14T03:49:24.874Z,32.38
2019-04-14T03:50:00.931Z,32.20
2019-04-14T03:51:13.648Z,32.00
2019-04-14T03:52:55.781Z,32.15
2019-04-14T03:53:59.005Z,31.68
2019-04-14T03:54:36.627Z,31.45
2019-04-14T03:55:02.683Z,32.03
2019-04-14T03:56:19.340Z,31.73
2019-04-14T03:56:53.915Z,31.60
2019-04-14T03:57:28.562Z,31.57
2019-04-14T03:58:01.531Z,31.77
2019-04-14T03:58:35.775Z,31.82
2019-04-14T03:59:08.900Z,31.77
2019-04-14T03:59:41.905Z,31.95
2019-04-14T04:00:15.902Z,31.68
2019-04-14T04:00:49.248Z,32.05
2019-04-14T04:01:23.664Z,32.55
2019-04-14T04:01:56.767Z,31.70
2019-04-14T04:02:29.793Z,32.00
2019-04-14T04:03:03.918Z,32.10
2019-04-14T04:03:36.909Z,32.45
2019-04-14T04:04:09.918Z,32.60
2019-04-14T04:04:42.713Z,31.73
2019-04-14T04:05:15.602Z,32.13
2019-04-14T04:05:49.878Z,33.13
2019-04-14T04:06:23.037Z,32.63
2019-04-14T04:06:57.357Z,32.45
2019-04-14T04:07:30.347Z,32.20
2019-04-14T04:08:03.380Z,32.58
2019-04-14T04:08:36.254Z,32.03
2019-04-14T04:09:10.358Z,32.35
2019-04-14T04:09:49.659Z,32.28
2019-04-14T04:10:22.650Z,31.85
2019-04-14T04:10:55.681Z,32.23
2019-04-14T04:11:28.591Z,32.75
2019-04-14T04:12:01.509Z,32.60
2019-04-14T04:12:35.658Z,32.85
2019-04-14T04:13:08.742Z,33.05
2019-04-14T04:13:41.808Z,32.25
2019-04-14T04:14:15.905Z,33.13
2019-04-14T04:14:48.950Z,32.74
2019-04-14T04:15:23.450Z,33.00
2019-04-14T04:16:11.556Z,32.38
2019-04-14T04:16:55.651Z,32.58
2019-04-14T04:17:53.897Z,32.60
2019-04-14T04:18:28.663Z,33.23
2019-04-14T04:19:13.996Z,32.55
2019-04-14T04:20:08.951Z,33.13
2019-04-14T04:21:05.260Z,32.95
2019-04-14T04:21:55.231Z,32.08
2019-04-14T04:22:41.974Z,32.98
2019-04-14T04:23:31.157Z,32.53
2019-04-14T04:24:23.906Z,32.70
2019-04-14T04:25:16.734Z,32.38
2019-04-14T04:26:01.751Z,32.53
2019-04-14T04:26:42.853Z,33.00
2019-04-14T04:27:26.597Z,32.73
2019-04-14T04:28:18.854Z,33.18
2019-04-14T04:29:04.928Z,33.08
2019-04-14T04:29:55.236Z,32.60
2019-04-14T04:30:42.673Z,33.55
2019-04-14T04:31:30.705Z,33.15
2019-04-14T04:32:23.083Z,31.97
2019-04-14T04:33:10.704Z,32.73
2019-04-14T04:34:03.309Z,32.63
2019-04-14T04:34:55.579Z,33.40
2019-04-14T04:35:41.522Z,32.48
2019-04-14T04:36:20.503Z,32.83
2019-04-14T04:37:22.045Z,32.20
2019-04-14T04:38:07.493Z,32.70
2019-04-14T04:38:48.826Z,33.45
2019-04-14T04:39:25.828Z,32.45
2019-04-14T04:40:02.976Z,32.98
2019-04-14T04:40:36.121Z,33.40
2019-04-14T04:41:10.156Z,33.25
2019-04-14T04:41:43.343Z,33.08
2019-04-14T04:42:16.137Z,33.18
2019-04-14T04:42:49.077Z,33.00
2019-04-14T04:43:23.255Z,33.00
2019-04-14T04:43:56.230Z,33.35
2019-04-14T04:44:29.166Z,33.00
2019-04-14T04:45:03.862Z,32.80
2019-04-14T04:45:38.692Z,33.02
2019-04-14T04:46:13.407Z,32.75
2019-04-14T04:46:46.421Z,33.45
2019-04-14T04:47:19.327Z,32.30
2019-04-14T04:47:53.402Z,33.23
2019-04-14T04:48:26.494Z,33.05
2019-04-14T04:49:09.091Z,32.95
2019-04-14T04:49:34.228Z,33.42
2019-04-14T04:50:08.525Z,33.15
2019-04-14T04:50:41.616Z,32.95
2019-04-14T04:51:14.605Z,32.83
2019-04-14T04:51:48.696Z,33.30
2019-04-14T04:52:21.857Z,33.15
2019-04-14T04:52:56.086Z,32.63
2019-04-14T04:53:29.527Z,33.45
2019-04-14T04:54:03.765Z,34.18
2019-04-14T04:54:36.861Z,32.90
2019-04-14T04:55:11.196Z,33.78
2019-04-14T04:55:44.339Z,33.42
2019-04-14T04:56:17.327Z,33.85
2019-04-14T04:56:51.514Z,33.92
2019-04-14T04:57:24.588Z,32.85
2019-04-14T04:57:59.052Z,33.80
2019-04-14T04:58:32.739Z,33.70
2019-04-14T04:59:05.910Z,33.25
2019-04-14T04:59:38.860Z,34.03
2019-04-14T05:00:13.371Z,33.73
2019-04-14T05:00:48.545Z,34.23
2019-04-14T05:01:21.728Z,34.18
2019-04-14T05:01:56.264Z,33.95
2019-04-14T05:02:29.313Z,33.45
2019-04-14T05:03:03.585Z,33.98
2019-04-14T05:03:36.665Z,34.27
2019-04-14T05:04:09.664Z,34.63
2019-04-14T05:04:43.731Z,33.48
2019-04-14T05:06:06.953Z,33.48
2019-04-14T05:07:05.681Z,34.15
2019-04-14T05:07:38.705Z,34.30
2019-04-14T05:08:13.010Z,34.13
2019-04-14T05:08:50.601Z,33.08
2019-04-14T05:09:39.082Z,34.50
2019-04-14T05:10:22.349Z,33.70
2019-04-14T05:11:01.110Z,34.54
2019-04-14T05:11:40.405Z,34.55
2019-04-14T05:12:33.188Z,34.08
2019-04-14T05:13:20.614Z,33.55
2019-04-14T05:13:55.355Z,34.53
2019-04-14T05:14:39.026Z,34.45
2019-04-14T05:15:31.874Z,34.83
2019-04-14T05:16:06.332Z,34.13
2019-04-14T05:16:39.861Z,34.75
2019-04-14T05:17:13.182Z,34.33
2019-04-14T05:17:47.295Z,34.50
2019-04-14T05:18:24.861Z,34.83
2019-04-14T05:19:11.428Z,35.28
2019-04-14T05:19:36.006Z,34.13
2019-04-14T05:20:07.695Z,34.38
2019-04-14T05:20:40.631Z,34.70
2019-04-14T05:21:14.836Z,34.65
2019-04-14T05:21:47.858Z,35.08
2019-04-14T05:22:22.060Z,35.13
2019-04-14T05:22:55.674Z,35.52
2019-04-14T05:23:29.824Z,34.85
2019-04-14T05:24:03.139Z,34.38
2019-04-14T05:24:37.549Z,34.88
2019-04-14T05:25:10.590Z,34.38
2019-04-14T05:25:45.114Z,34.55
2019-04-14T05:26:18.235Z,35.28
2019-04-14T05:26:51.092Z,35.13
2019-04-14T05:27:25.328Z,34.95
2019-04-14T05:28:00.418Z,35.23
2019-04-14T05:28:33.601Z,34.90
2019-04-14T05:29:10.013Z,35.45
2019-04-14T05:29:43.107Z,35.17
2019-04-14T05:30:16.121Z,35.50
2019-04-14T05:30:50.270Z,34.90
2019-04-14T05:31:26.259Z,35.40
2019-04-14T05:31:58.273Z,35.10
2019-04-14T05:32:32.577Z,35.33
2019-04-14T05:33:05.599Z,34.27
2019-04-14T05:33:38.438Z,35.43
2019-04-14T05:34:11.255Z,35.58
2019-04-14T05:34:44.065Z,35.70
2019-04-14T05:35:17.047Z,34.75
2019-04-14T05:35:50.947Z,35.00
2019-04-14T05:36:23.876Z,35.83
2019-04-14T05:36:56.813Z,35.70
2019-04-14T05:37:29.727Z,35.28
2019-04-14T05:38:03.755Z,35.08
2019-04-14T05:38:37.051Z,36.20
2019-04-14T05:39:09.855Z,35.80
2019-04-14T05:39:43.949Z,34.85
2019-04-14T05:40:17.065Z,35.03
2019-04-14T05:40:51.834Z,35.08
2019-04-14T05:41:25.123Z,35.08
2019-04-14T05:42:07.680Z,35.33
2019-04-14T05:42:34.107Z,35.03
2019-04-14T05:43:07.051Z,34.98
2019-04-14T05:43:48.759Z,35.25
2019-04-14T05:44:16.600Z,35.35
2019-04-14T05:44:49.508Z,35.75
2019-04-14T05:45:22.609Z,35.45
2019-04-14T05:45:56.574Z,35.28
2019-04-14T05:46:29.741Z,34.75
2019-04-14T05:47:02.630Z,34.08
2019-04-14T05:47:35.728Z,35.50
2019-04-14T05:48:09.748Z,34.75
2019-04-14T05:48:44.638Z,34.33
2019-04-14T05:49:28.639Z,35.15
2019-04-14T05:49:54.964Z,35.38
2019-04-14T05:50:27.274Z,35.80
2019-04-14T05:51:00.391Z,35.80
2019-04-14T05:51:33.470Z,35.10
2019-04-14T05:52:07.648Z,34.80
2019-04-14T05:52:41.023Z,35.68
2019-04-14T05:53:15.310Z,35.52
2019-04-14T05:53:48.495Z,34.88
2019-04-14T05:54:21.542Z,35.48
2019-04-14T05:54:55.705Z,35.58
2019-04-14T05:55:28.763Z,35.52
2019-04-14T05:56:01.756Z,35.15
2019-04-14T05:56:37.241Z,36.58
2019-04-14T05:57:11.133Z,34.00
2019-04-14T05:57:44.241Z,35.05
2019-04-14T05:58:18.585Z,36.05
2019-04-14T05:58:51.996Z,36.10
2019-04-14T05:59:24.919Z,35.98
2019-04-14T05:59:59.420Z,35.20
2019-04-14T06:00:32.746Z,35.33
2019-04-14T06:01:06.927Z,35.68
2019-04-14T06:01:40.089Z,35.13
2019-04-14T06:02:13.692Z,35.60
2019-04-14T06:02:48.607Z,36.33
2019-04-14T06:03:21.671Z,35.85
2019-04-14T06:03:54.635Z,35.48
2019-04-14T06:04:28.519Z,34.80
2019-04-14T06:05:01.727Z,35.08
2019-04-14T06:05:36.184Z,35.60
2019-04-14T06:06:09.419Z,35.30
2019-04-14T06:06:42.462Z,33.63
2019-04-14T06:07:15.382Z,35.03
2019-04-14T06:07:48.417Z,35.70
2019-04-14T06:08:21.488Z,36.15
2019-04-14T06:08:54.322Z,34.88
2019-04-14T06:09:27.783Z,35.83
2019-04-14T06:10:03.732Z,34.40
2019-04-14T06:10:36.913Z,35.45
2019-04-14T06:11:09.917Z,35.68
2019-04-14T06:11:42.892Z,36.25
2019-04-14T06:12:15.933Z,36.00
2019-04-14T06:12:48.935Z,34.75
2019-04-14T06:13:21.897Z,34.33
2019-04-14T06:13:56.292Z,35.38
2019-04-14T06:14:29.465Z,34.88
2019-04-14T06:15:02.648Z,35.35
2019-04-14T06:15:35.721Z,34.65
2019-04-14T06:16:08.863Z,35.00
2019-04-14T06:16:42.002Z,34.00
2019-04-14T06:17:15.085Z,35.17
2019-04-14T06:17:48.257Z,35.50
2019-04-14T06:18:21.354Z,35.03
2019-04-14T06:18:54.337Z,34.05
2019-04-14T06:19:36.386Z,35.20
2019-04-14T06:20:02.799Z,35.33
2019-04-14T06:20:35.686Z,34.98
2019-04-14T06:21:18.215Z,32.45
2019-04-14T06:21:51.204Z,36.03
2019-04-14T06:22:24.269Z,35.10
2019-04-14T06:22:57.202Z,35.38
2019-04-14T06:23:30.278Z,34.92
2019-04-14T06:24:03.449Z,36.60
2019-04-14T06:24:36.850Z,35.15
2019-04-14T06:25:10.014Z,35.35
2019-04-14T06:25:43.117Z,35.45
2019-04-14T06:26:16.082Z,35.80
2019-04-14T06:26:49.444Z,35.03
2019-04-14T06:27:24.037Z,35.25
2019-04-14T06:27:57.092Z,35.90
2019-04-14T06:28:30.323Z,36.03
2019-04-14T06:29:03.563Z,33.63
2019-04-14T06:29:36.621Z,35.17
2019-04-14T06:30:33.260Z,36.13
2019-04-14T06:31:24.614Z,35.60
2019-04-14T06:32:17.181Z,36.60
2019-04-14T06:32:50.579Z,36.50
2019-04-14T06:33:35.263Z,36.48
2019-04-14T06:34:23.885Z,36.68
2019-04-14T06:35:32.014Z,35.75
2019-04-14T06:36:19.391Z,36.83
2019-04-14T06:38:05.552Z,37.25
2019-04-14T06:38:41.199Z,36.35
2019-04-14T06:39:18.307Z,37.15
2019-04-14T06:39:51.997Z,36.40
2019-04-14T06:40:26.992Z,35.05
2019-04-14T06:41:04.985Z,36.65
2019-04-14T06:41:38.141Z,36.85
2019-04-14T06:42:11.085Z,35.95
2019-04-14T06:42:44.012Z,36.42
2019-04-14T06:43:17.189Z,36.53
2019-04-14T06:43:50.140Z,36.13
2019-04-14T06:44:23.237Z,35.60
2019-04-14T06:44:56.205Z,34.18
2019-04-14T06:45:29.123Z,34.43
2019-04-14T06:46:02.152Z,35.25
2019-04-14T06:46:35.160Z,32.15
2019-04-14T06:47:08.105Z,35.28
2019-04-14T06:47:41.013Z,35.80
2019-04-14T06:48:13.995Z,35.35
2019-04-14T06:48:46.799Z,34.65
2019-04-14T06:49:19.845Z,35.43
2019-04-14T06:49:52.879Z,35.50
2019-04-14T06:50:25.856Z,34.50
2019-04-14T06:50:58.865Z,34.35
2019-04-14T06:51:32.229Z,33.65
2019-04-14T06:52:05.355Z,33.08
2019-04-14T06:52:38.411Z,35.28
2019-04-14T06:53:11.318Z,33.28
2019-04-14T06:53:44.271Z,34.58
2019-04-14T06:54:17.181Z,33.83
2019-04-14T06:54:50.373Z,32.95
2019-04-14T06:55:24.813Z,34.75
2019-04-14T06:55:57.853Z,33.23
2019-04-14T06:56:30.759Z,33.95
2019-04-14T06:57:03.906Z,33.08
2019-04-14T06:57:36.699Z,35.20
2019-04-14T06:58:09.650Z,34.98
2019-04-14T06:58:42.635Z,35.43
2019-04-14T06:59:15.671Z,33.98
2019-04-14T06:59:48.781Z,35.43
2019-04-14T07:00:21.854Z,31.95
2019-04-14T07:00:54.779Z,32.05
2019-04-14T07:01:27.942Z,31.42
2019-04-14T07:02:01.935Z,33.63
2019-04-14T07:02:35.099Z,35.13
2019-04-14T07:03:07.990Z,34.83
2019-04-14T07:03:41.243Z,33.75
2019-04-14T07:04:14.151Z,33.53
2019-04-14T07:04:47.157Z,34.35
2019-04-14T07:05:20.137Z,34.08
2019-04-14T07:05:53.227Z,32.95
2019-04-14T07:06:26.250Z,33.90
2019-04-14T07:06:59.212Z,35.52
2019-04-14T07:07:32.097Z,34.80
2019-04-14T07:08:05.077Z,35.60
2019-04-14T07:08:37.989Z,34.60
2019-04-14T07:09:11.045Z,33.48
2019-04-14T07:09:44.054Z,33.30
2019-04-14T07:10:17.042Z,33.55
2019-04-14T07:10:49.927Z,34.13
2019-04-14T07:11:22.863Z,34.08
2019-04-14T07:11:55.951Z,34.50
2019-04-14T07:12:29.018Z,35.00
2019-04-14T07:13:01.820Z,34.78
2019-04-14T07:13:35.151Z,34.90
2019-04-14T07:14:08.147Z,35.23
2019-04-14T07:14:41.184Z,34.55
2019-04-14T07:15:14.243Z,34.53
2019-04-14T07:15:47.380Z,32.13
2019-04-14T07:16:20.158Z,34.23
2019-04-14T07:16:53.007Z,31.62
2019-04-14T07:17:26.051Z,33.30
2019-04-14T07:17:59.098Z,34.53
2019-04-14T07:18:33.085Z,34.15
2019-04-14T07:19:06.236Z,35.00
2019-04-14T07:19:39.239Z,33.88
2019-04-14T07:20:12.441Z,34.78
2019-04-14T07:20:45.549Z,32.80
2019-04-14T07:21:18.532Z,35.08
2019-04-14T07:21:52.675Z,34.35
2019-04-14T07:22:25.695Z,34.75
2019-04-14T07:22:58.629Z,34.88
2019-04-14T07:23:31.714Z,32.85
2019-04-14T07:24:04.712Z,32.58
2019-04-14T07:24:37.810Z,33.13
2019-04-14T07:25:12.040Z,34.65
2019-04-14T07:25:45.011Z,33.55
2019-04-14T07:26:19.090Z,33.65
2019-04-14T07:26:52.178Z,34.95
2019-04-14T07:27:25.071Z,34.50
2019-04-14T07:27:58.117Z,35.20
2019-04-14T07:28:32.800Z,34.80
2019-04-14T07:29:05.841Z,34.98
2019-04-14T07:29:46.269Z,35.15
2019-04-14T07:30:39.372Z,34.85
2019-04-14T07:31:38.109Z,32.67
2019-04-14T07:32:25.765Z,34.18
2019-04-14T07:33:20.919Z,34.45
2019-04-14T07:34:13.677Z,34.43
2019-04-14T07:35:11.829Z,31.05
2019-04-14T07:36:04.503Z,34.38
2019-04-14T07:37:09.503Z,31.20
2019-04-14T07:37:49.198Z,34.00
2019-04-14T07:38:36.454Z,32.63
2019-04-14T07:39:47.629Z,33.45
2019-04-14T07:40:43.182Z,34.90
2019-04-14T07:41:39.006Z,34.58
2019-04-14T07:42:31.523Z,34.40
2019-04-14T07:43:39.597Z,33.35
2019-04-14T07:44:31.413Z,34.83
2019-04-14T07:45:24.693Z,33.80
2019-04-14T07:46:08.591Z,35.13
2019-04-14T07:46:53.268Z,34.18
2019-04-14T07:47:40.147Z,34.92
2019-04-14T07:48:26.654Z,34.13
2019-04-14T07:49:15.671Z,34.18
2019-04-14T07:50:14.609Z,35.45
2019-04-14T07:50:53.783Z,34.25
2019-04-14T07:51:55.674Z,34.90
2019-04-14T07:52:45.867Z,35.03
2019-04-14T07:53:33.107Z,35.23
2019-04-14T07:54:24.719Z,32.53
2019-04-14T07:55:19.698Z,34.85
2019-04-14T07:56:27.377Z,34.75
2019-04-14T07:57:19.101Z,35.00
2019-04-14T07:58:01.127Z,35.13
2019-04-14T07:58:53.819Z,35.55
2019-04-14T07:59:47.279Z,33.53
2019-04-14T08:00:31.025Z,35.17
2019-04-14T08:01:09.551Z,34.92
2019-04-14T08:02:08.471Z,34.80
2019-04-14T08:03:06.923Z,34.20
2019-04-14T08:03:59.587Z,34.08
2019-04-14T08:04:35.558Z,34.30
2019-04-14T08:05:12.517Z,34.18
2019-04-14T08:05:46.581Z,33.73
2019-04-14T08:06:19.619Z,33.83
2019-04-14T08:06:56.463Z,33.95
2019-04-14T08:07:29.471Z,33.98
2019-04-14T08:08:02.663Z,32.85
2019-04-14T08:08:35.973Z,32.63
2019-04-14T08:09:08.931Z,33.23
2019-04-14T08:09:42.281Z,33.75
2019-04-14T08:10:15.457Z,34.08
2019-04-14T08:10:48.577Z,33.83
2019-04-14T08:11:21.575Z,33.45
2019-04-14T08:11:54.591Z,31.75
2019-04-14T08:12:27.678Z,32.55
2019-04-14T08:13:00.811Z,32.28
2019-04-14T08:13:33.797Z,32.90
2019-04-14T08:14:06.702Z,33.50
2019-04-14T08:14:39.722Z,32.50
2019-04-14T08:15:13.157Z,32.60
2019-04-14T08:15:46.301Z,33.75
2019-04-14T08:16:19.311Z,33.67
2019-04-14T08:16:52.491Z,33.67
2019-04-14T08:17:25.618Z,33.83